world map with GIZ marked

GIZ - Airport

This information may not be accurate or current and is not valid for navigation or flight planning. No warranty of fitness for any purpose is made or implied.

flag of Saudi Arabia

Donate via PayPal

Additional information is available on the NEW Great Circle Mapper

Location
City:  Jazan, Saudi Arabia
Near (Alt.):Jizan, Gizan
Name:King Abdullah bin Abdulaziz Airport
ICAO / IATA:OEGN / GIZ

Details
Type:Airport (Aerodrome, Airfield)
Use:Public/Civil
Latitude:16°54'04"N (16.901111)
Longitude:42°35'09"E (42.585833)
Elevation:20 ft (6 m)
Runways:1
Longest:10007 × 148 ft (3050 × 45 m)

Time
Timezone:UTC+3 (DST+5)
Local Time:

Weather
METAR:OEGN  041400Z 18012KT 9999 FEW030 29/23 Q1013 NOSIG
TAF:OEGN  (expired)

Related Locations
Nearby:
Farthest:TKV: 12369 mi / 19906 km
Tatakoto, PF

Find:

   beyond  
but within

Other Information
Maps:
Sources:

  


 


Great Circle Mapper   Great Circle Mapper
Great Circle Mapper FAQ   Great Circle Mapper FAQ
  Karl's Home Page
KLSē   KLSē Home
   GC on Facebook
Airlines of the World   Airlines of the World
Donate via PayPal


Copyright © 2004-2019, Karl L. Swartz. All rights reserved.
All trademarks mentioned herein belong to their respective owners.

Please see credits for attribution and copyright information.

Karl Swartz <karl@kls2.com>
  Powered by FreeBSD
Valid HTML 4.01!
Labeled with ICRA
hCard Microformat
Geo Microformat